Terminal Aerodrome Forecast
Issued by NWS

Home | Current Version | Previous Version | Graphics & Text | Print | Product List | Glossary On
Versions: 1 2 3 4 5 6 7 8 9 10 11 12 13 14 15 16 17 18 19
163
FTUS43 KICT 250522
TAFSLN
TAF
KSLN 250522Z 2506/2606 05009KT P6SM VCTS SCT070CB BKN150
     FM251300 08011KT P6SM SCT150
     FM252100 12010KT P6SM SCT200=

USA.gov is the U.S. government's official web portal to all federal, state and local government web resources and services.